createdAt,value
2023-02-23T00:00:20.809Z,18.17
2023-02-23T00:00:35.751Z,18.30
2023-02-23T00:00:47.651Z,17.50
2023-02-23T00:01:00.760Z,17.27
2023-02-23T00:01:19.509Z,17.58
2023-02-23T00:01:31.738Z,18.02
2023-02-23T00:01:43.677Z,17.75
2023-02-23T00:01:58.179Z,17.80
2023-02-23T00:02:10.434Z,18.27
2023-02-23T00:02:22.362Z,18.75
2023-02-23T00:02:34.443Z,18.67
2023-02-23T00:02:48.607Z,19.45
2023-02-23T00:03:02.150Z,19.33
2023-02-23T00:03:14.339Z,18.83
2023-02-23T00:03:28.728Z,18.90
2023-02-23T00:03:41.044Z,18.90
2023-02-23T00:03:58.075Z,18.45
2023-02-23T00:04:10.300Z,18.17
2023-02-23T00:04:23.969Z,18.02
2023-02-23T00:04:36.233Z,21.15
2023-02-23T00:04:48.925Z,21.92
2023-02-23T00:05:00.824Z,19.35
2023-02-23T00:05:13.128Z,18.08
2023-02-23T00:05:28.956Z,17.65
2023-02-23T00:05:40.923Z,17.60
2023-02-23T00:05:52.847Z,17.38
2023-02-23T00:06:05.040Z,17.23
2023-02-23T00:06:20.134Z,17.42
2023-02-23T00:06:35.933Z,17.67
2023-02-23T00:06:52.132Z,17.58
2023-02-23T00:07:06.332Z,17.52
2023-02-23T00:07:20.172Z,17.95
2023-02-23T00:07:32.265Z,20.15
2023-02-23T00:07:45.185Z,22.15
2023-02-23T00:07:57.771Z,22.80
2023-02-23T00:08:10.928Z,20.65
2023-02-23T00:08:23.480Z,18.30
2023-02-23T00:08:36.439Z,17.08
2023-02-23T00:08:48.457Z,18.05
2023-02-23T00:09:01.243Z,18.55
2023-02-23T00:09:23.031Z,18.55
2023-02-23T00:09:35.929Z,18.98
2023-02-23T00:09:48.069Z,18.70
2023-02-23T00:10:01.543Z,18.27
2023-02-23T00:10:15.211Z,18.48
2023-02-23T00:10:31.473Z,18.45
2023-02-23T00:10:44.457Z,17.83
2023-02-23T00:11:00.218Z,17.42
2023-02-23T00:11:12.200Z,18.00
2023-02-23T00:11:24.458Z,17.70
2023-02-23T00:11:36.348Z,17.63
2023-02-23T00:11:52.748Z,17.65
2023-02-23T00:12:09.528Z,18.30
2023-02-23T00:12:23.952Z,17.60
2023-02-23T00:12:35.885Z,17.23
2023-02-23T00:12:51.783Z,17.52
2023-02-23T00:13:04.905Z,18.15
2023-02-23T00:13:16.837Z,19.40
2023-02-23T00:13:29.233Z,19.63
2023-02-23T00:13:42.621Z,19.20
2023-02-23T00:13:56.878Z,18.17
2023-02-23T00:14:08.983Z,18.10
2023-02-23T00:14:24.559Z,18.13
2023-02-23T00:14:40.446Z,18.15
2023-02-23T00:14:52.374Z,18.75
2023-02-23T00:15:04.574Z,18.48
2023-02-23T00:15:16.684Z,18.73
2023-02-23T00:15:29.797Z,18.85
2023-02-23T00:15:41.722Z,18.77
2023-02-23T00:15:55.366Z,18.73
2023-02-23T00:16:12.358Z,18.38
2023-02-23T00:16:26.169Z,18.50
2023-02-23T00:16:38.443Z,18.17
2023-02-23T00:16:50.510Z,18.02
2023-02-23T00:17:02.785Z,18.85
2023-02-23T00:17:17.427Z,19.00
2023-02-23T00:17:31.467Z,18.52
2023-02-23T00:17:43.907Z,18.80
2023-02-23T00:17:57.563Z,18.75
2023-02-23T00:18:09.490Z,18.20
2023-02-23T00:18:22.898Z,18.00
2023-02-23T00:18:44.913Z,17.63
2023-02-23T00:19:00.342Z,18.17
2023-02-23T00:19:13.951Z,18.50
2023-02-23T00:19:26.099Z,17.95
2023-02-23T00:19:38.051Z,18.38
2023-02-23T00:19:50.396Z,18.63
2023-02-23T00:20:11.614Z,19.10
2023-02-23T00:20:27.452Z,17.48
2023-02-23T00:20:44.480Z,17.23
2023-02-23T00:20:57.687Z,17.92
2023-02-23T00:21:12.768Z,18.15
2023-02-23T00:21:25.715Z,17.65
2023-02-23T00:21:38.561Z,17.55
2023-02-23T00:21:50.978Z,17.98
2023-02-23T00:22:03.248Z,17.67
2023-02-23T00:22:15.137Z,17.42
2023-02-23T00:22:27.153Z,16.92
2023-02-23T00:22:40.150Z,17.05
2023-02-23T00:22:56.769Z,17.65
2023-02-23T00:23:08.967Z,17.02
2023-02-23T00:23:20.892Z,16.80
2023-02-23T00:23:32.844Z,17.10
2023-02-23T00:23:53.218Z,17.83
2023-02-23T00:24:16.699Z,17.45
2023-02-23T00:24:29.826Z,17.50
2023-02-23T00:24:47.119Z,16.48
2023-02-23T00:24:59.654Z,16.55
2023-02-23T00:25:15.231Z,17.05
2023-02-23T00:25:27.751Z,17.48
2023-02-23T00:25:39.722Z,17.38
2023-02-23T00:25:51.625Z,17.02
2023-02-23T00:26:04.397Z,16.42
2023-02-23T00:26:16.564Z,16.45
2023-02-23T00:26:33.864Z,17.02
2023-02-23T00:26:47.832Z,16.42
2023-02-23T00:27:00.011Z,16.52
2023-02-23T00:27:17.802Z,17.02
2023-02-23T00:27:29.737Z,17.38
2023-02-23T00:27:45.688Z,16.70
2023-02-23T00:27:57.698Z,15.95
2023-02-23T00:28:10.109Z,16.65
2023-02-23T00:28:22.044Z,17.52
2023-02-23T00:28:34.048Z,17.92
2023-02-23T00:28:47.422Z,17.80
2023-02-23T00:29:00.170Z,17.10
2023-02-23T00:29:20.719Z,16.38
2023-02-23T00:29:38.870Z,17.05
2023-02-23T00:29:54.060Z,17.75
2023-02-23T00:30:07.234Z,17.88
2023-02-23T00:30:20.300Z,17.08
2023-02-23T00:30:32.283Z,16.50
2023-02-23T00:30:46.554Z,16.48
2023-02-23T00:30:59.989Z,16.90
2023-02-23T00:31:12.068Z,17.25
2023-02-23T00:31:26.648Z,17.00
2023-02-23T00:31:39.124Z,16.98
2023-02-23T00:31:52.068Z,16.85
2023-02-23T00:32:04.585Z,16.38
2023-02-23T00:32:20.666Z,16.60
2023-02-23T00:32:33.016Z,17.08
2023-02-23T00:32:46.200Z,17.15
2023-02-23T00:32:58.145Z,17.35
2023-02-23T00:33:10.067Z,17.83
2023-02-23T00:33:22.000Z,18.30
2023-02-23T00:33:34.755Z,18.13
2023-02-23T00:33:46.764Z,17.60
2023-02-23T00:34:01.980Z,18.08
2023-02-23T00:34:16.120Z,18.05
2023-02-23T00:34:28.352Z,17.98
2023-02-23T00:34:41.703Z,18.00
2023-02-23T00:34:53.683Z,17.75
2023-02-23T00:35:11.412Z,18.08
2023-02-23T00:35:24.914Z,18.05
2023-02-23T00:35:36.867Z,18.00
2023-02-23T00:35:48.766Z,17.92
2023-02-23T00:36:05.464Z,17.60
2023-02-23T00:36:17.424Z,16.80
2023-02-23T00:36:31.966Z,17.80
2023-02-23T00:36:43.877Z,18.42
2023-02-23T00:36:55.969Z,17.67
2023-02-23T00:37:08.636Z,16.67
2023-02-23T00:37:22.905Z,15.73
2023-02-23T00:37:34.855Z,16.00
2023-02-23T00:37:48.813Z,16.67
2023-02-23T00:38:00.769Z,16.65
2023-02-23T00:38:12.700Z,16.05
2023-02-23T00:38:24.622Z,16.73
2023-02-23T00:38:37.643Z,17.15
2023-02-23T00:38:53.792Z,17.85
2023-02-23T00:39:18.819Z,16.67
2023-02-23T00:39:30.760Z,15.70
2023-02-23T00:39:42.853Z,16.13
2023-02-23T00:39:56.636Z,16.92
2023-02-23T00:40:13.845Z,17.15
2023-02-23T00:40:26.396Z,17.23
2023-02-23T00:40:40.996Z,17.85
2023-02-23T00:40:52.893Z,17.90
2023-02-23T00:41:12.089Z,17.40
2023-02-23T00:41:28.476Z,17.13
2023-02-23T00:41:40.535Z,17.25
2023-02-23T00:41:55.953Z,17.20
2023-02-23T00:42:08.229Z,17.33
2023-02-23T00:42:20.167Z,16.63
2023-02-23T00:42:32.331Z,16.17
2023-02-23T00:42:45.335Z,17.05
2023-02-23T00:42:58.146Z,17.35
2023-02-23T00:43:10.117Z,17.23
2023-02-23T00:43:24.824Z,17.63
2023-02-23T00:43:39.413Z,17.90
2023-02-23T00:43:54.784Z,17.70
2023-02-23T00:44:06.926Z,17.63
2023-02-23T00:44:20.858Z,17.77
2023-02-23T00:44:33.959Z,17.58
2023-02-23T00:44:47.617Z,17.30
2023-02-23T00:45:06.899Z,17.83
2023-02-23T00:45:20.240Z,17.88
2023-02-23T00:45:32.187Z,17.30
2023-02-23T00:45:44.177Z,17.15
2023-02-23T00:45:56.221Z,17.23
2023-02-23T00:46:08.236Z,17.37
2023-02-23T00:46:21.602Z,17.10
2023-02-23T00:46:33.573Z,16.75
2023-02-23T00:46:48.913Z,16.45
2023-02-23T00:47:01.705Z,16.58
2023-02-23T00:47:13.638Z,18.17
2023-02-23T00:47:25.528Z,17.77
2023-02-23T00:47:39.141Z,17.33
2023-02-23T00:47:51.098Z,17.45
2023-02-23T00:48:04.244Z,17.13
2023-02-23T00:48:16.213Z,16.45
2023-02-23T00:48:28.737Z,16.33
2023-02-23T00:48:40.678Z,17.20
2023-02-23T00:48:55.444Z,17.25
2023-02-23T00:49:07.757Z,16.98
2023-02-23T00:49:21.968Z,17.00
2023-02-23T00:49:34.712Z,17.02
2023-02-23T00:49:46.685Z,17.20
2023-02-23T00:49:58.594Z,17.98
2023-02-23T00:50:18.287Z,18.00
2023-02-23T00:50:30.310Z,16.75
2023-02-23T00:50:42.249Z,16.38
2023-02-23T00:51:04.597Z,16.40
2023-02-23T00:51:18.581Z,17.80
2023-02-23T00:51:31.001Z,16.88
2023-02-23T00:51:43.365Z,17.02
2023-02-23T00:51:55.332Z,17.38
2023-02-23T00:52:07.676Z,17.48
2023-02-23T00:52:19.633Z,17.33
2023-02-23T00:52:31.897Z,16.85
2023-02-23T00:52:44.653Z,16.83
2023-02-23T00:52:59.588Z,16.58
2023-02-23T00:53:11.728Z,16.58
2023-02-23T00:53:23.868Z,16.55
2023-02-23T00:53:35.830Z,16.88
2023-02-23T00:53:48.025Z,17.20
2023-02-23T00:54:00.613Z,17.38
2023-02-23T00:54:14.355Z,17.38
2023-02-23T00:54:26.340Z,17.40
2023-02-23T00:54:38.279Z,17.13
2023-02-23T00:54:51.369Z,17.15
2023-02-23T00:55:03.454Z,17.67
2023-02-23T00:55:15.873Z,17.95
2023-02-23T00:55:27.836Z,17.58
2023-02-23T00:55:41.481Z,17.10
2023-02-23T00:55:55.219Z,16.08
2023-02-23T00:56:09.572Z,16.27
2023-02-23T00:56:22.038Z,17.23
2023-02-23T00:56:34.565Z,17.13
2023-02-23T00:56:47.273Z,17.02
2023-02-23T00:56:59.269Z,17.40
2023-02-23T00:57:11.277Z,17.90
2023-02-23T00:57:23.357Z,18.20
2023-02-23T00:57:36.080Z,17.88
2023-02-23T00:57:48.091Z,17.30
2023-02-23T00:58:00.020Z,17.27
2023-02-23T00:58:14.030Z,16.45
2023-02-23T00:58:26.977Z,16.08
2023-02-23T00:58:39.383Z,16.27
2023-02-23T00:58:51.319Z,16.67
2023-02-23T00:59:03.303Z,17.17
2023-02-23T00:59:15.776Z,17.05
2023-02-23T00:59:29.614Z,17.08
2023-02-23T00:59:41.698Z,17.20
2023-02-23T00:59:53.613Z,17.13
2023-02-23T01:00:27.886Z,17.42
2023-02-23T01:00:42.213Z,17.38
2023-02-23T01:00:54.248Z,16.92
2023-02-23T01:01:10.615Z,16.50
2023-02-23T01:01:23.498Z,17.00
2023-02-23T01:01:37.398Z,17.75
2023-02-23T01:01:49.920Z,17.50
2023-02-23T01:02:01.980Z,17.30
2023-02-23T01:02:14.039Z,17.15
2023-02-23T01:02:30.506Z,16.90
2023-02-23T01:02:42.636Z,16.20
2023-02-23T01:02:54.684Z,16.58
2023-02-23T01:03:06.622Z,17.13
2023-02-23T01:03:18.775Z,16.58
2023-02-23T01:03:30.794Z,15.30
2023-02-23T01:03:43.532Z,15.32
2023-02-23T01:03:55.505Z,15.77
2023-02-23T01:04:08.366Z,16.42
2023-02-23T01:04:20.313Z,17.45
2023-02-23T01:04:32.243Z,17.58
2023-02-23T01:04:44.209Z,16.70
2023-02-23T01:04:56.746Z,16.58
2023-02-23T01:05:09.973Z,17.25
2023-02-23T01:05:22.212Z,16.75
2023-02-23T01:05:35.202Z,16.50
2023-02-23T01:05:49.975Z,17.10
2023-02-23T01:06:06.062Z,17.48
2023-02-23T01:06:17.992Z,17.77
2023-02-23T01:06:30.170Z,17.35
2023-02-23T01:06:43.021Z,17.27
2023-02-23T01:06:54.941Z,17.05
2023-02-23T01:07:07.001Z,17.55
2023-02-23T01:07:19.043Z,16.92
2023-02-23T01:07:31.016Z,16.65
2023-02-23T01:07:46.368Z,16.25
2023-02-23T01:07:58.385Z,16.42
2023-02-23T01:08:10.898Z,17.38
2023-02-23T01:08:24.809Z,16.80
2023-02-23T01:08:40.784Z,16.17
2023-02-23T01:08:57.057Z,16.77
2023-02-23T01:09:13.479Z,17.27
2023-02-23T01:09:28.257Z,17.02
2023-02-23T01:09:40.746Z,16.92
2023-02-23T01:09:52.935Z,16.95
2023-02-23T01:10:19.275Z,17.02
2023-02-23T01:10:31.218Z,17.38
2023-02-23T01:10:44.287Z,17.13
2023-02-23T01:10:56.419Z,16.95
2023-02-23T01:11:14.373Z,16.27
2023-02-23T01:11:28.782Z,15.65
2023-02-23T01:11:46.796Z,16.05
2023-02-23T01:12:01.512Z,16.48
2023-02-23T01:12:13.497Z,17.08
2023-02-23T01:12:25.407Z,17.35
2023-02-23T01:12:37.368Z,17.15
2023-02-23T01:12:50.553Z,16.73
2023-02-23T01:13:03.026Z,16.42
2023-02-23T01:13:15.100Z,16.67
2023-02-23T01:13:28.057Z,16.97
2023-02-23T01:13:42.750Z,17.02
2023-02-23T01:13:57.497Z,16.75
2023-02-23T01:14:10.490Z,17.58
2023-02-23T01:14:23.919Z,17.17
2023-02-23T01:14:37.906Z,16.80
2023-02-23T01:14:50.047Z,17.05
2023-02-23T01:15:04.698Z,16.73
2023-02-23T01:15:18.113Z,16.15
2023-02-23T01:15:30.039Z,16.67
2023-02-23T01:15:47.497Z,17.23
2023-02-23T01:15:59.511Z,16.70
2023-02-23T01:16:14.910Z,16.42
2023-02-23T01:16:29.658Z,16.80
2023-02-23T01:16:41.562Z,16.83
2023-02-23T01:16:53.698Z,16.67
2023-02-23T01:17:05.659Z,16.73
2023-02-23T01:17:17.941Z,16.88
2023-02-23T01:17:30.571Z,16.77
2023-02-23T01:17:43.028Z,16.67
2023-02-23T01:17:54.925Z,17.65
2023-02-23T01:18:07.039Z,18.02
2023-02-23T01:18:20.440Z,17.55
2023-02-23T01:18:34.697Z,16.90
2023-02-23T01:18:47.078Z,16.70
2023-02-23T01:19:03.335Z,16.52
2023-02-23T01:19:15.840Z,16.55
2023-02-23T01:19:28.544Z,16.52
2023-02-23T01:19:40.486Z,16.55
2023-02-23T01:19:52.415Z,16.23
2023-02-23T01:20:15.518Z,16.48
2023-02-23T01:20:28.143Z,16.33
2023-02-23T01:20:42.447Z,16.45
2023-02-23T01:20:54.447Z,17.05
2023-02-23T01:21:18.499Z,17.13
2023-02-23T01:21:34.436Z,17.10
2023-02-23T01:21:46.383Z,17.42
2023-02-23T01:21:58.275Z,17.15
2023-02-23T01:22:10.419Z,16.77
2023-02-23T01:22:22.359Z,16.50
2023-02-23T01:22:34.284Z,16.42
2023-02-23T01:22:51.584Z,16.63
2023-02-23T01:23:04.729Z,16.65
2023-02-23T01:23:16.899Z,16.65
2023-02-23T01:23:28.830Z,17.08
2023-02-23T01:23:40.793Z,17.35
2023-02-23T01:23:53.980Z,17.52
2023-02-23T01:24:06.398Z,17.50
2023-02-23T01:24:18.462Z,17.05
2023-02-23T01:24:30.457Z,16.63
2023-02-23T01:24:42.818Z,16.10
2023-02-23T01:24:54.816Z,15.65
2023-02-23T01:25:06.929Z,15.18
2023-02-23T01:25:19.104Z,15.93
2023-02-23T01:25:32.589Z,16.52
2023-02-23T01:25:45.542Z,16.65
2023-02-23T01:25:57.892Z,16.88
2023-02-23T01:26:20.183Z,16.75
2023-02-23T01:26:36.898Z,16.30
2023-02-23T01:26:48.819Z,16.58
2023-02-23T01:27:00.714Z,16.63
2023-02-23T01:27:13.611Z,16.35
2023-02-23T01:27:25.817Z,16.70
2023-02-23T01:27:39.294Z,17.10
2023-02-23T01:27:51.222Z,16.77
2023-02-23T01:28:03.290Z,16.17
2023-02-23T01:28:15.182Z,16.05
2023-02-23T01:28:27.151Z,16.48
2023-02-23T01:28:41.387Z,16.63
2023-02-23T01:28:56.092Z,16.40
2023-02-23T01:29:10.953Z,16.75
2023-02-23T01:29:22.901Z,16.67
2023-02-23T01:29:37.872Z,16.73
2023-02-23T01:29:49.839Z,16.70
2023-02-23T01:30:01.831Z,16.48
2023-02-23T01:30:15.071Z,16.27
2023-02-23T01:30:27.111Z,16.80
2023-02-23T01:30:40.213Z,17.25
2023-02-23T01:30:52.252Z,17.75
2023-02-23T01:31:08.947Z,18.10
2023-02-23T01:31:22.840Z,16.75
2023-02-23T01:31:36.588Z,15.90
2023-02-23T01:31:51.140Z,16.23
2023-02-23T01:32:05.051Z,16.33
2023-02-23T01:32:17.189Z,16.55
2023-02-23T01:32:29.244Z,16.25
2023-02-23T01:32:41.503Z,15.85
2023-02-23T01:32:53.417Z,15.30
2023-02-23T01:33:05.808Z,15.90
2023-02-23T01:33:17.738Z,16.40
2023-02-23T01:33:29.728Z,16.63
2023-02-23T01:33:41.827Z,16.40
2023-02-23T01:33:55.710Z,16.35
2023-02-23T01:34:08.261Z,16.20
2023-02-23T01:34:21.614Z,16.17
2023-02-23T01:34:33.637Z,16.17
2023-02-23T01:34:45.684Z,15.55
2023-02-23T01:34:57.720Z,15.52
2023-02-23T01:35:12.318Z,15.88
2023-02-23T01:35:24.218Z,16.38
2023-02-23T01:35:36.697Z,16.50
2023-02-23T01:36:00.896Z,16.17
2023-02-23T01:36:13.246Z,15.68
2023-02-23T01:36:26.359Z,16.30
2023-02-23T01:36:40.502Z,16.45
2023-02-23T01:36:52.536Z,16.27
2023-02-23T01:37:04.464Z,15.85
2023-02-23T01:37:16.380Z,16.00
2023-02-23T01:37:28.262Z,15.98
2023-02-23T01:37:43.471Z,16.08
2023-02-23T01:37:55.569Z,16.40
2023-02-23T01:38:07.535Z,16.45
2023-02-23T01:38:19.466Z,16.35
2023-02-23T01:38:31.418Z,16.85
2023-02-23T01:38:43.327Z,17.38
2023-02-23T01:38:59.905Z,17.40
2023-02-23T01:39:15.690Z,15.82
2023-02-23T01:39:28.228Z,15.18
2023-02-23T01:39:40.190Z,15.82
2023-02-23T01:39:52.745Z,16.58
2023-02-23T01:40:13.394Z,16.88
2023-02-23T01:40:29.504Z,16.33
2023-02-23T01:40:43.477Z,16.85
2023-02-23T01:40:55.414Z,16.73
2023-02-23T01:41:09.016Z,16.92
2023-02-23T01:41:21.436Z,17.38
2023-02-23T01:41:35.531Z,17.67
2023-02-23T01:41:48.438Z,16.70
2023-02-23T01:42:00.442Z,15.98
2023-02-23T01:42:15.177Z,16.45
2023-02-23T01:42:27.122Z,16.75
2023-02-23T01:42:41.939Z,15.98
2023-02-23T01:42:55.590Z,15.07
2023-02-23T01:43:14.411Z,16.05
2023-02-23T01:43:26.349Z,16.58
2023-02-23T01:43:56.616Z,16.92
2023-02-23T01:44:36.075Z,17.80
2023-02-23T01:44:47.989Z,17.20
2023-02-23T01:45:19.006Z,15.07
2023-02-23T01:45:37.619Z,15.02
2023-02-23T01:45:49.571Z,16.27
2023-02-23T01:46:01.509Z,16.35
2023-02-23T01:46:13.492Z,15.77
2023-02-23T01:46:25.894Z,16.15
2023-02-23T01:46:39.957Z,16.38
2023-02-23T01:46:52.784Z,16.90
2023-02-23T01:47:05.069Z,17.15
2023-02-23T01:47:20.249Z,16.35
2023-02-23T01:47:32.183Z,15.63
2023-02-23T01:47:44.248Z,15.43
2023-02-23T01:48:02.959Z,15.25
2023-02-23T01:48:14.842Z,15.05
2023-02-23T01:48:32.623Z,15.23
2023-02-23T01:48:44.692Z,16.35
2023-02-23T01:48:57.302Z,16.73
2023-02-23T01:49:15.402Z,17.08
2023-02-23T01:49:30.770Z,18.17
2023-02-23T01:49:42.790Z,18.23
2023-02-23T01:49:54.820Z,16.92
2023-02-23T01:50:07.214Z,16.20
2023-02-23T01:50:19.767Z,16.38
2023-02-23T01:50:40.221Z,17.02
2023-02-23T01:50:55.029Z,15.90
2023-02-23T01:51:11.848Z,14.77
2023-02-23T01:51:27.623Z,14.48
2023-02-23T01:51:48.453Z,15.32
2023-02-23T01:52:13.355Z,17.38
2023-02-23T01:52:25.349Z,17.95
2023-02-23T01:52:38.284Z,18.38
2023-02-23T01:52:52.180Z,18.60
2023-02-23T01:53:05.308Z,18.40
2023-02-23T01:53:19.574Z,17.60
2023-02-23T01:53:36.208Z,17.30
2023-02-23T01:54:18.283Z,17.58
2023-02-23T01:54:56.671Z,17.48
2023-02-23T01:55:12.882Z,18.90
2023-02-23T01:55:25.963Z,18.35
2023-02-23T01:55:39.012Z,18.15
2023-02-23T01:55:55.616Z,18.13
2023-02-23T01:56:11.393Z,18.60
2023-02-23T01:56:27.980Z,18.88
2023-02-23T01:56:43.746Z,18.08
2023-02-23T01:56:58.619Z,18.02
2023-02-23T01:57:14.515Z,18.23
2023-02-23T01:57:27.031Z,18.13
2023-02-23T01:57:41.573Z,18.40
2023-02-23T01:58:01.568Z,18.52
2023-02-23T01:58:19.695Z,18.23
2023-02-23T01:58:33.708Z,17.30
2023-02-23T01:58:52.241Z,16.67
2023-02-23T01:59:08.124Z,17.88
2023-02-23T01:59:20.065Z,18.13
2023-02-23T01:59:44.654Z,18.02
2023-02-23T01:59:56.587Z,18.17
2023-02-23T02:00:13.751Z,17.63
2023-02-23T02:00:26.526Z,17.35
2023-02-23T02:00:41.573Z,17.83
2023-02-23T02:00:56.128Z,18.60
2023-02-23T02:01:08.128Z,19.15
2023-02-23T02:01:21.786Z,19.27
2023-02-23T02:01:38.565Z,19.02
2023-02-23T02:01:50.538Z,18.27
2023-02-23T02:02:23.432Z,18.13
2023-02-23T02:02:55.751Z,19.27
2023-02-23T02:03:14.022Z,17.88
2023-02-23T02:03:35.215Z,18.20
2023-02-23T02:03:53.546Z,17.17
2023-02-23T02:04:05.836Z,18.10
2023-02-23T02:04:19.569Z,18.42
2023-02-23T02:04:43.740Z,18.70
2023-02-23T02:04:56.411Z,18.00
2023-02-23T02:05:14.114Z,18.08
2023-02-23T02:05:28.409Z,18.65
2023-02-23T02:05:40.803Z,18.55
2023-02-23T02:05:53.430Z,18.30
2023-02-23T02:06:09.966Z,18.58
2023-02-23T02:06:24.779Z,18.88
2023-02-23T02:06:39.187Z,18.83
2023-02-23T02:06:55.385Z,18.58
2023-02-23T02:07:07.930Z,18.17
2023-02-23T02:07:23.305Z,18.42
2023-02-23T02:07:36.902Z,19.10
2023-02-23T02:07:58.480Z,18.75
2023-02-23T02:08:10.701Z,18.80
2023-02-23T02:08:24.401Z,18.88
2023-02-23T02:08:44.801Z,18.92
2023-02-23T02:09:06.563Z,19.63
2023-02-23T02:09:19.511Z,19.52
2023-02-23T02:09:37.908Z,19.45
2023-02-23T02:10:08.138Z,19.20
2023-02-23T02:10:39.598Z,19.43
2023-02-23T02:10:56.024Z,19.35
2023-02-23T02:11:25.741Z,19.23
2023-02-23T02:11:38.856Z,18.88
2023-02-23T02:11:54.154Z,19.30
2023-02-23T02:12:08.548Z,18.88
2023-02-23T02:12:23.311Z,19.23
2023-02-23T02:12:35.489Z,19.92
2023-02-23T02:12:55.497Z,20.00
2023-02-23T02:13:10.414Z,19.48
2023-02-23T02:13:27.987Z,19.38
2023-02-23T02:13:40.749Z,20.15
2023-02-23T02:13:59.766Z,20.48
2023-02-23T02:14:20.836Z,19.80
2023-02-23T02:14:33.314Z,20.67
2023-02-23T02:14:45.593Z,20.10
2023-02-23T02:14:59.954Z,18.92
2023-02-23T02:15:19.488Z,18.80
2023-02-23T02:15:38.544Z,19.77
2023-02-23T02:16:12.960Z,19.48
2023-02-23T02:16:45.825Z,20.65
2023-02-23T02:17:10.270Z,18.30
2023-02-23T02:18:08.998Z,19.13
2023-02-23T02:18:32.152Z,19.08
2023-02-23T02:18:51.358Z,18.33
2023-02-23T02:19:39.075Z,19.40
2023-02-23T02:20:14.691Z,18.73
2023-02-23T02:20:37.502Z,18.70
2023-02-23T02:21:13.698Z,19.10
2023-02-23T02:21:51.711Z,17.08
2023-02-23T02:22:15.609Z,18.67
2023-02-23T02:22:41.637Z,18.33
2023-02-23T02:22:56.190Z,18.65
2023-02-23T02:23:54.179Z,18.05
2023-02-23T02:24:31.232Z,17.77
2023-02-23T02:25:01.371Z,17.52
2023-02-23T02:25:41.019Z,18.30
2023-02-23T02:26:29.924Z,18.63
2023-02-23T02:26:56.674Z,19.13
2023-02-23T02:27:34.114Z,19.40
2023-02-23T02:28:23.486Z,19.15
2023-02-23T02:29:06.107Z,19.52
2023-02-23T02:29:28.648Z,19.38
2023-02-23T02:30:02.229Z,18.75
2023-02-23T02:30:49.445Z,19.55
2023-02-23T02:31:01.397Z,20.23
2023-02-23T02:31:30.116Z,20.27
2023-02-23T02:32:01.418Z,20.23
2023-02-23T02:32:25.492Z,19.58
2023-02-23T02:33:11.029Z,18.52
2023-02-23T02:33:32.138Z,18.85
2023-02-23T02:34:15.913Z,19.65
2023-02-23T02:34:42.566Z,19.75
2023-02-23T02:35:18.844Z,18.73
2023-02-23T02:36:04.366Z,19.13
2023-02-23T02:36:28.108Z,19.50
2023-02-23T02:36:51.861Z,20.48
2023-02-23T02:37:48.431Z,20.25
2023-02-23T02:38:06.286Z,20.08
2023-02-23T02:38:24.228Z,19.60
2023-02-23T02:39:01.047Z,19.48
2023-02-23T02:39:35.235Z,19.95
2023-02-23T02:40:16.167Z,19.35
2023-02-23T02:40:54.639Z,19.50
2023-02-23T02:41:37.434Z,19.90
2023-02-23T02:42:21.700Z,19.30
2023-02-23T02:42:55.140Z,19.75
2023-02-23T02:43:22.704Z,20.83
2023-02-23T02:43:37.191Z,19.27
2023-02-23T02:43:55.729Z,19.83
2023-02-23T02:44:30.589Z,20.23
2023-02-23T02:44:57.448Z,20.35
2023-02-23T02:45:17.872Z,19.42
2023-02-23T02:45:50.862Z,17.52
2023-02-23T02:46:12.661Z,18.90
2023-02-23T02:46:27.539Z,19.67
2023-02-23T02:46:47.887Z,19.83
2023-02-23T02:47:08.041Z,19.42
2023-02-23T02:47:29.267Z,18.75
2023-02-23T02:47:48.835Z,19.33
2023-02-23T02:48:14.959Z,19.20
2023-02-23T02:48:48.317Z,18.88
2023-02-23T02:49:17.251Z,19.55
2023-02-23T02:49:50.793Z,19.33
2023-02-23T02:50:15.273Z,19.02
2023-02-23T02:50:51.433Z,19.33
2023-02-23T02:51:25.357Z,18.60
2023-02-23T02:51:46.738Z,18.45
2023-02-23T02:52:09.602Z,17.92
2023-02-23T02:52:29.268Z,18.50
2023-02-23T02:52:49.805Z,18.60
2023-02-23T02:53:10.461Z,19.05
2023-02-23T02:53:28.675Z,19.15
2023-02-23T02:54:06.843Z,19.50
2023-02-23T02:54:33.893Z,18.60
2023-02-23T02:54:53.365Z,18.83
2023-02-23T02:55:14.293Z,18.95
2023-02-23T02:55:33.894Z,18.95
2023-02-23T02:55:48.282Z,18.63
2023-02-23T02:56:05.698Z,18.83
2023-02-23T02:56:21.972Z,18.83
2023-02-23T02:56:41.901Z,18.85
2023-02-23T02:56:57.662Z,18.40
2023-02-23T02:57:12.602Z,18.67
2023-02-23T02:57:27.478Z,18.83
2023-02-23T02:57:40.411Z,18.15
2023-02-23T02:57:57.667Z,18.40
2023-02-23T02:58:12.259Z,18.95
2023-02-23T02:58:25.551Z,18.40
2023-02-23T02:58:39.018Z,17.20
2023-02-23T02:58:53.562Z,15.90
2023-02-23T02:59:30.197Z,15.50
2023-02-23T03:00:05.677Z,17.52
2023-02-23T03:00:39.103Z,18.08
2023-02-23T03:01:10.303Z,17.38
2023-02-23T03:01:40.669Z,16.77
2023-02-23T03:02:11.004Z,16.17
2023-02-23T03:02:41.779Z,15.93
2023-02-23T03:03:12.066Z,16.73
2023-02-23T03:03:52.668Z,18.25
2023-02-23T03:04:39.041Z,17.58
2023-02-23T03:05:09.550Z,16.98
2023-02-23T03:05:49.042Z,15.90
2023-02-23T03:06:19.407Z,15.52
2023-02-23T03:06:57.329Z,15.15
2023-02-23T03:07:52.433Z,17.25
2023-02-23T03:08:55.135Z,16.88
2023-02-23T03:10:05.813Z,18.00
2023-02-23T03:10:45.799Z,17.70
2023-02-23T03:11:22.789Z,18.00
2023-02-23T03:12:10.518Z,18.10
2023-02-23T03:12:50.080Z,18.15
2023-02-23T03:13:32.708Z,17.92
2023-02-23T03:14:36.950Z,18.42
2023-02-23T03:15:19.418Z,18.38
2023-02-23T03:16:18.281Z,19.17
2023-02-23T03:17:09.445Z,18.95
2023-02-23T03:18:01.552Z,18.40
2023-02-23T03:18:44.566Z,18.95
2023-02-23T03:19:36.842Z,15.45
2023-02-23T03:20:29.362Z,18.60
2023-02-23T03:21:08.819Z,18.90
2023-02-23T03:21:47.820Z,18.58
2023-02-23T03:22:29.698Z,18.48
2023-02-23T03:23:14.042Z,19.00
2023-02-23T03:24:15.609Z,18.50
2023-02-23T03:25:08.623Z,18.77
2023-02-23T03:25:48.120Z,18.10
2023-02-23T03:26:32.676Z,17.80
2023-02-23T03:27:18.782Z,18.15
2023-02-23T03:28:13.354Z,17.75
2023-02-23T03:28:51.599Z,17.38
2023-02-23T03:29:32.969Z,17.70
2023-02-23T03:30:22.793Z,18.02
2023-02-23T03:31:04.680Z,16.27
2023-02-23T03:32:00.816Z,16.98
2023-02-23T03:32:34.411Z,17.10
2023-02-23T03:33:14.997Z,14.10
2023-02-23T03:34:04.107Z,16.95
2023-02-23T03:34:47.411Z,17.67
2023-02-23T03:35:27.719Z,17.88
2023-02-23T03:36:10.282Z,17.92
2023-02-23T03:36:45.587Z,18.02
2023-02-23T03:37:25.258Z,17.38
2023-02-23T03:38:07.029Z,17.25
2023-02-23T03:38:49.971Z,17.00
2023-02-23T03:39:53.409Z,17.13
2023-02-23T03:40:26.769Z,17.92
2023-02-23T03:41:01.031Z,17.23
2023-02-23T03:41:34.787Z,17.60
2023-02-23T03:42:08.745Z,17.77
2023-02-23T03:42:44.964Z,17.65
2023-02-23T03:43:19.750Z,18.00
2023-02-23T03:43:56.248Z,17.58
2023-02-23T03:44:35.649Z,17.73
2023-02-23T03:45:08.358Z,17.55
2023-02-23T03:45:42.217Z,17.95
2023-02-23T03:46:15.106Z,17.80
2023-02-23T03:46:49.055Z,16.20
2023-02-23T03:47:22.086Z,16.15
2023-02-23T03:47:55.878Z,17.00
2023-02-23T03:48:29.168Z,16.67
2023-02-23T03:49:03.578Z,15.45
2023-02-23T03:49:36.831Z,14.85
2023-02-23T03:50:08.659Z,14.80
2023-02-23T03:50:49.536Z,15.73
2023-02-23T03:51:24.870Z,17.02
2023-02-23T03:52:00.233Z,16.48
2023-02-23T03:52:37.764Z,15.20
2023-02-23T03:53:15.204Z,14.25
2023-02-23T03:53:53.173Z,15.88
2023-02-23T03:54:30.991Z,15.60
2023-02-23T03:55:08.494Z,15.40
2023-02-23T03:55:45.899Z,15.60
2023-02-23T03:56:18.307Z,15.00
2023-02-23T03:56:54.063Z,15.55
2023-02-23T03:57:29.025Z,16.60
2023-02-23T03:58:02.644Z,16.45
2023-02-23T03:58:41.848Z,17.40
2023-02-23T03:59:17.892Z,17.02
2023-02-23T03:59:53.551Z,17.42
2023-02-23T04:00:29.726Z,17.48
2023-02-23T04:01:04.976Z,17.20
2023-02-23T04:01:39.108Z,16.88
2023-02-23T04:02:13.712Z,16.67
2023-02-23T04:02:45.156Z,17.50
2023-02-23T04:03:18.509Z,16.63
2023-02-23T04:03:52.420Z,16.50
2023-02-23T04:04:25.395Z,17.20
2023-02-23T04:04:57.630Z,15.45
2023-02-23T04:05:34.199Z,16.87
2023-02-23T04:06:08.524Z,17.30
2023-02-23T04:06:43.409Z,17.45
2023-02-23T04:07:17.240Z,18.17
2023-02-23T04:07:48.521Z,16.88
2023-02-23T04:08:23.489Z,17.77
2023-02-23T04:08:56.466Z,17.02
2023-02-23T04:09:27.667Z,18.27
2023-02-23T04:09:58.665Z,17.05
2023-02-23T04:10:30.103Z,17.73